sensor_id;sensor_type;location;lat;lon;timestamp;P1;durP1;ratioP1;P2;durP2;ratioP2
56893;SDS011;43392;50.078;13.704;2023-01-20T00:00:51;22.63;;;10.40;;
56893;SDS011;43392;50.078;13.704;2023-01-20T00:03:17;19.23;;;10.13;;
56893;SDS011;43392;50.078;13.704;2023-01-20T00:05:50;19.42;;;10.02;;
56893;SDS011;43392;50.078;13.704;2023-01-20T00:08:17;19.27;;;10.40;;
56893;SDS011;43392;50.078;13.704;2023-01-20T00:10:44;20.00;;;10.45;;
56893;SDS011;43392;50.078;13.704;2023-01-20T00:13:10;22.10;;;10.90;;
56893;SDS011;43392;50.078;13.704;2023-01-20T00:15:37;21.77;;;11.05;;
56893;SDS011;43392;50.078;13.704;2023-01-20T00:18:04;22.65;;;11.32;;
56893;SDS011;43392;50.078;13.704;2023-01-20T00:20:30;22.88;;;11.40;;
56893;SDS011;43392;50.078;13.704;2023-01-20T00:22:58;22.00;;;11.50;;
56893;SDS011;43392;50.078;13.704;2023-01-20T00:25:25;19.67;;;11.00;;
56893;SDS011;43392;50.078;13.704;2023-01-20T00:27:51;25.67;;;11.00;;
56893;SDS011;43392;50.078;13.704;2023-01-20T00:30:18;22.30;;;10.93;;
56893;SDS011;43392;50.078;13.704;2023-01-20T00:32:44;18.90;;;9.80;;
56893;SDS011;43392;50.078;13.704;2023-01-20T00:35:11;15.13;;;8.75;;
56893;SDS011;43392;50.078;13.704;2023-01-20T00:37:38;15.13;;;8.05;;
56893;SDS011;43392;50.078;13.704;2023-01-20T00:40:07;15.05;;;8.25;;
56893;SDS011;43392;50.078;13.704;2023-01-20T00:42:34;17.42;;;9.23;;
56893;SDS011;43392;50.078;13.704;2023-01-20T00:45:01;16.67;;;8.68;;
56893;SDS011;43392;50.078;13.704;2023-01-20T00:47:28;15.15;;;8.48;;
56893;SDS011;43392;50.078;13.704;2023-01-20T00:49:54;15.27;;;8.13;;
56893;SDS011;43392;50.078;13.704;2023-01-20T00:52:21;14.18;;;8.70;;
56893;SDS011;43392;50.078;13.704;2023-01-20T00:54:47;14.35;;;8.15;;
56893;SDS011;43392;50.078;13.704;2023-01-20T00:57:15;15.38;;;8.35;;
56893;SDS011;43392;50.078;13.704;2023-01-20T00:59:42;14.05;;;7.95;;
56893;SDS011;43392;50.078;13.704;2023-01-20T01:02:08;15.55;;;8.38;;
56893;SDS011;43392;50.078;13.704;2023-01-20T01:04:35;18.58;;;9.32;;
56893;SDS011;43392;50.078;13.704;2023-01-20T01:07:02;21.48;;;9.52;;
56893;SDS011;43392;50.078;13.704;2023-01-20T01:09:28;20.60;;;9.95;;
56893;SDS011;43392;50.078;13.704;2023-01-20T01:11:56;20.02;;;10.70;;
56893;SDS011;43392;50.078;13.704;2023-01-20T01:14:24;19.60;;;10.15;;
56893;SDS011;43392;50.078;13.704;2023-01-20T01:16:51;18.45;;;9.75;;
56893;SDS011;43392;50.078;13.704;2023-01-20T01:19:17;19.40;;;10.32;;
56893;SDS011;43392;50.078;13.704;2023-01-20T01:21:44;15.50;;;8.10;;
56893;SDS011;43392;50.078;13.704;2023-01-20T01:24:10;13.60;;;8.23;;
56893;SDS011;43392;50.078;13.704;2023-01-20T01:26:37;13.57;;;7.45;;
56893;SDS011;43392;50.078;13.704;2023-01-20T01:29:03;19.70;;;7.97;;
56893;SDS011;43392;50.078;13.704;2023-01-20T01:31:31;16.85;;;8.60;;
56893;SDS011;43392;50.078;13.704;2023-01-20T01:33:58;16.45;;;8.13;;
56893;SDS011;43392;50.078;13.704;2023-01-20T01:36:25;14.52;;;8.32;;
56893;SDS011;43392;50.078;13.704;2023-01-20T01:38:51;14.90;;;7.32;;
56893;SDS011;43392;50.078;13.704;2023-01-20T01:41:18;20.20;;;9.15;;
56893;SDS011;43392;50.078;13.704;2023-01-20T01:44:01;18.25;;;8.63;;
56893;SDS011;43392;50.078;13.704;2023-01-20T01:46:29;17.27;;;9.32;;
56893;SDS011;43392;50.078;13.704;2023-01-20T01:48:57;16.80;;;9.25;;
56893;SDS011;43392;50.078;13.704;2023-01-20T01:51:28;17.92;;;8.73;;
56893;SDS011;43392;50.078;13.704;2023-01-20T01:53:59;15.93;;;8.18;;
56893;SDS011;43392;50.078;13.704;2023-01-20T01:56:30;17.40;;;8.25;;
56893;SDS011;43392;50.078;13.704;2023-01-20T01:58:59;16.70;;;8.00;;
56893;SDS011;43392;50.078;13.704;2023-01-20T02:01:30;17.70;;;9.10;;
56893;SDS011;43392;50.078;13.704;2023-01-20T02:04:02;16.05;;;8.27;;
56893;SDS011;43392;50.078;13.704;2023-01-20T02:06:30;14.82;;;8.57;;
56893;SDS011;43392;50.078;13.704;2023-01-20T02:09:00;15.05;;;8.60;;
56893;SDS011;43392;50.078;13.704;2023-01-20T02:11:29;13.90;;;7.72;;
56893;SDS011;43392;50.078;13.704;2023-01-20T02:14:01;17.58;;;9.10;;
56893;SDS011;43392;50.078;13.704;2023-01-20T02:16:31;22.55;;;9.75;;
56893;SDS011;43392;50.078;13.704;2023-01-20T02:19:11;18.08;;;10.15;;
56893;SDS011;43392;50.078;13.704;2023-01-20T02:22:07;16.55;;;9.07;;
56893;SDS011;43392;50.078;13.704;2023-01-20T02:24:58;18.42;;;10.13;;
56893;SDS011;43392;50.078;13.704;2023-01-20T02:27:46;15.20;;;9.43;;
56893;SDS011;43392;50.078;13.704;2023-01-20T02:30:33;16.10;;;8.57;;
56893;SDS011;43392;50.078;13.704;2023-01-20T02:33:17;16.42;;;8.88;;
56893;SDS011;43392;50.078;13.704;2023-01-20T02:35:52;18.08;;;10.00;;
56893;SDS011;43392;50.078;13.704;2023-01-20T02:38:25;16.63;;;8.48;;
56893;SDS011;43392;50.078;13.704;2023-01-20T02:41:00;17.33;;;8.68;;
56893;SDS011;43392;50.078;13.704;2023-01-20T02:43:33;17.92;;;8.68;;
56893;SDS011;43392;50.078;13.704;2023-01-20T02:51:08;17.00;;;9.95;;
56893;SDS011;43392;50.078;13.704;2023-01-20T02:53:41;16.38;;;9.02;;
56893;SDS011;43392;50.078;13.704;2023-01-20T02:56:13;18.83;;;8.82;;
56893;SDS011;43392;50.078;13.704;2023-01-20T02:58:42;16.95;;;8.80;;
56893;SDS011;43392;50.078;13.704;2023-01-20T03:01:15;17.67;;;9.20;;
56893;SDS011;43392;50.078;13.704;2023-01-20T03:03:46;14.70;;;8.30;;
56893;SDS011;43392;50.078;13.704;2023-01-20T03:06:19;13.65;;;8.40;;
56893;SDS011;43392;50.078;13.704;2023-01-20T03:08:50;18.30;;;8.68;;
56893;SDS011;43392;50.078;13.704;2023-01-20T03:11:18;15.88;;;7.82;;
56893;SDS011;43392;50.078;13.704;2023-01-20T03:13:47;14.60;;;8.38;;
56893;SDS011;43392;50.078;13.704;2023-01-20T03:16:18;15.80;;;7.88;;
56893;SDS011;43392;50.078;13.704;2023-01-20T03:18:49;14.20;;;7.93;;
56893;SDS011;43392;50.078;13.704;2023-01-20T03:21:16;12.57;;;8.02;;
56893;SDS011;43392;50.078;13.704;2023-01-20T03:23:45;16.75;;;8.25;;
56893;SDS011;43392;50.078;13.704;2023-01-20T03:26:15;15.05;;;8.18;;
56893;SDS011;43392;50.078;13.704;2023-01-20T03:28:44;16.70;;;9.87;;
56893;SDS011;43392;50.078;13.704;2023-01-20T03:31:13;24.70;;;14.82;;
56893;SDS011;43392;50.078;13.704;2023-01-20T03:33:43;28.25;;;15.85;;
56893;SDS011;43392;50.078;13.704;2023-01-20T03:36:12;27.30;;;14.30;;
56893;SDS011;43392;50.078;13.704;2023-01-20T03:38:41;26.85;;;14.15;;
56893;SDS011;43392;50.078;13.704;2023-01-20T03:41:11;48.50;;;25.85;;
56893;SDS011;43392;50.078;13.704;2023-01-20T03:43:42;35.42;;;18.92;;
56893;SDS011;43392;50.078;13.704;2023-01-20T03:46:16;31.83;;;16.17;;
56893;SDS011;43392;50.078;13.704;2023-01-20T03:48:48;27.30;;;14.55;;
56893;SDS011;43392;50.078;13.704;2023-01-20T03:51:20;31.95;;;16.27;;
56893;SDS011;43392;50.078;13.704;2023-01-20T03:53:53;51.85;;;26.60;;
56893;SDS011;43392;50.078;13.704;2023-01-20T03:56:24;53.83;;;26.75;;
56893;SDS011;43392;50.078;13.704;2023-01-20T03:58:57;52.05;;;25.60;;
56893;SDS011;43392;50.078;13.704;2023-01-20T04:01:29;39.97;;;21.90;;
56893;SDS011;43392;50.078;13.704;2023-01-20T04:03:57;32.33;;;16.80;;
56893;SDS011;43392;50.078;13.704;2023-01-20T04:06:27;30.02;;;15.70;;
56893;SDS011;43392;50.078;13.704;2023-01-20T04:08:57;24.13;;;13.80;;
56893;SDS011;43392;50.078;13.704;2023-01-20T04:13:52;24.95;;;12.65;;
56893;SDS011;43392;50.078;13.704;2023-01-20T04:16:20;24.85;;;12.75;;
56893;SDS011;43392;50.078;13.704;2023-01-20T04:18:48;23.13;;;12.57;;
56893;SDS011;43392;50.078;13.704;2023-01-20T04:21:18;22.55;;;12.23;;
56893;SDS011;43392;50.078;13.704;2023-01-20T04:23:50;21.85;;;12.00;;
56893;SDS011;43392;50.078;13.704;2023-01-20T04:26:21;20.73;;;11.63;;
56893;SDS011;43392;50.078;13.704;2023-01-20T04:28:48;21.52;;;12.25;;
56893;SDS011;43392;50.078;13.704;2023-01-20T04:31:14;24.42;;;14.40;;
56893;SDS011;43392;50.078;13.704;2023-01-20T04:33:42;23.15;;;12.85;;
56893;SDS011;43392;50.078;13.704;2023-01-20T04:36:08;19.00;;;12.05;;
56893;SDS011;43392;50.078;13.704;2023-01-20T04:38:35;19.02;;;11.15;;
56893;SDS011;43392;50.078;13.704;2023-01-20T04:41:03;21.15;;;12.60;;
56893;SDS011;43392;50.078;13.704;2023-01-20T04:43:30;23.60;;;13.02;;
56893;SDS011;43392;50.078;13.704;2023-01-20T04:45:56;22.20;;;12.45;;
56893;SDS011;43392;50.078;13.704;2023-01-20T04:48:23;27.02;;;15.05;;
56893;SDS011;43392;50.078;13.704;2023-01-20T04:50:49;27.23;;;15.07;;
56893;SDS011;43392;50.078;13.704;2023-01-20T04:53:16;29.02;;;16.05;;
56893;SDS011;43392;50.078;13.704;2023-01-20T04:55:43;24.42;;;13.93;;
56893;SDS011;43392;50.078;13.704;2023-01-20T04:58:11;25.50;;;14.85;;
56893;SDS011;43392;50.078;13.704;2023-01-20T05:00:38;27.40;;;16.35;;
56893;SDS011;43392;50.078;13.704;2023-01-20T05:03:05;22.88;;;14.57;;
56893;SDS011;43392;50.078;13.704;2023-01-20T05:05:31;25.20;;;14.65;;
56893;SDS011;43392;50.078;13.704;2023-01-20T05:07:58;33.10;;;16.88;;
56893;SDS011;43392;50.078;13.704;2023-01-20T05:10:25;40.97;;;21.40;;
56893;SDS011;43392;50.078;13.704;2023-01-20T05:12:51;36.17;;;20.25;;
56893;SDS011;43392;50.078;13.704;2023-01-20T05:15:19;25.70;;;15.18;;
56893;SDS011;43392;50.078;13.704;2023-01-20T05:17:46;21.50;;;13.60;;
56893;SDS011;43392;50.078;13.704;2023-01-20T05:20:12;20.88;;;15.02;;
56893;SDS011;43392;50.078;13.704;2023-01-20T05:22:39;23.90;;;14.80;;
56893;SDS011;43392;50.078;13.704;2023-01-20T05:25:06;25.23;;;14.25;;
56893;SDS011;43392;50.078;13.704;2023-01-20T05:27:34;19.90;;;12.27;;
56893;SDS011;43392;50.078;13.704;2023-01-20T05:30:01;38.97;;;23.05;;
56893;SDS011;43392;50.078;13.704;2023-01-20T05:32:29;36.65;;;22.40;;
56893;SDS011;43392;50.078;13.704;2023-01-20T05:34:55;40.40;;;24.58;;
56893;SDS011;43392;50.078;13.704;2023-01-20T05:37:22;37.30;;;22.58;;
56893;SDS011;43392;50.078;13.704;2023-01-20T05:39:49;39.38;;;21.42;;
56893;SDS011;43392;50.078;13.704;2023-01-20T05:42:15;48.17;;;30.10;;
56893;SDS011;43392;50.078;13.704;2023-01-20T05:44:42;51.95;;;29.48;;
56893;SDS011;43392;50.078;13.704;2023-01-20T05:47:09;79.30;;;47.42;;
56893;SDS011;43392;50.078;13.704;2023-01-20T05:49:37;87.68;;;55.40;;
56893;SDS011;43392;50.078;13.704;2023-01-20T05:52:03;89.97;;;55.67;;
56893;SDS011;43392;50.078;13.704;2023-01-20T05:54:30;69.53;;;42.95;;
56893;SDS011;43392;50.078;13.704;2023-01-20T05:56:56;55.65;;;33.33;;
56893;SDS011;43392;50.078;13.704;2023-01-20T05:59:23;35.25;;;21.77;;
56893;SDS011;43392;50.078;13.704;2023-01-20T06:01:50;32.33;;;18.80;;
56893;SDS011;43392;50.078;13.704;2023-01-20T06:04:17;28.00;;;16.05;;
56893;SDS011;43392;50.078;13.704;2023-01-20T06:06:44;24.83;;;14.55;;
56893;SDS011;43392;50.078;13.704;2023-01-20T06:09:11;22.02;;;12.75;;
56893;SDS011;43392;50.078;13.704;2023-01-20T06:11:38;22.67;;;12.85;;
56893;SDS011;43392;50.078;13.704;2023-01-20T06:14:04;20.70;;;12.20;;
56893;SDS011;43392;50.078;13.704;2023-01-20T06:16:31;23.30;;;12.48;;
56893;SDS011;43392;50.078;13.704;2023-01-20T06:18:57;21.23;;;12.15;;
56893;SDS011;43392;50.078;13.704;2023-01-20T06:21:24;27.73;;;16.60;;
56893;SDS011;43392;50.078;13.704;2023-01-20T06:23:52;28.05;;;16.88;;
56893;SDS011;43392;50.078;13.704;2023-01-20T06:26:19;24.63;;;14.70;;
56893;SDS011;43392;50.078;13.704;2023-01-20T06:28:45;26.88;;;14.85;;
56893;SDS011;43392;50.078;13.704;2023-01-20T06:31:12;24.55;;;14.05;;
56893;SDS011;43392;50.078;13.704;2023-01-20T06:33:40;25.95;;;17.25;;
56893;SDS011;43392;50.078;13.704;2023-01-20T06:36:08;22.83;;;14.50;;
56893;SDS011;43392;50.078;13.704;2023-01-20T06:38:37;33.28;;;22.25;;
56893;SDS011;43392;50.078;13.704;2023-01-20T06:41:06;39.03;;;27.00;;
56893;SDS011;43392;50.078;13.704;2023-01-20T06:43:34;39.80;;;26.48;;
56893;SDS011;43392;50.078;13.704;2023-01-20T06:46:04;44.50;;;26.10;;
56893;SDS011;43392;50.078;13.704;2023-01-20T06:48:32;48.58;;;27.95;;
56893;SDS011;43392;50.078;13.704;2023-01-20T06:50:59;50.35;;;29.63;;
56893;SDS011;43392;50.078;13.704;2023-01-20T06:53:26;44.15;;;27.33;;
56893;SDS011;43392;50.078;13.704;2023-01-20T06:55:53;40.60;;;22.50;;
56893;SDS011;43392;50.078;13.704;2023-01-20T06:58:22;45.97;;;23.80;;
56893;SDS011;43392;50.078;13.704;2023-01-20T07:00:49;38.50;;;22.95;;
56893;SDS011;43392;50.078;13.704;2023-01-20T07:03:16;40.58;;;22.40;;
56893;SDS011;43392;50.078;13.704;2023-01-20T07:05:43;43.28;;;23.65;;
56893;SDS011;43392;50.078;13.704;2023-01-20T07:08:09;36.17;;;20.90;;
56893;SDS011;43392;50.078;13.704;2023-01-20T07:10:36;24.60;;;12.90;;
56893;SDS011;43392;50.078;13.704;2023-01-20T07:13:03;20.45;;;12.55;;
56893;SDS011;43392;50.078;13.704;2023-01-20T07:15:31;21.75;;;12.15;;
56893;SDS011;43392;50.078;13.704;2023-01-20T07:17:57;25.50;;;12.88;;
56893;SDS011;43392;50.078;13.704;2023-01-20T07:20:24;23.70;;;12.65;;
56893;SDS011;43392;50.078;13.704;2023-01-20T07:22:50;24.02;;;13.65;;
56893;SDS011;43392;50.078;13.704;2023-01-20T07:25:17;25.67;;;13.38;;
56893;SDS011;43392;50.078;13.704;2023-01-20T07:27:44;25.67;;;12.35;;
56893;SDS011;43392;50.078;13.704;2023-01-20T07:30:10;22.35;;;12.13;;
56893;SDS011;43392;50.078;13.704;2023-01-20T07:32:38;22.30;;;12.55;;
56893;SDS011;43392;50.078;13.704;2023-01-20T07:35:05;24.23;;;12.60;;
56893;SDS011;43392;50.078;13.704;2023-01-20T07:37:32;20.75;;;11.93;;
56893;SDS011;43392;50.078;13.704;2023-01-20T07:39:59;24.08;;;12.23;;
56893;SDS011;43392;50.078;13.704;2023-01-20T07:42:26;16.58;;;9.73;;
56893;SDS011;43392;50.078;13.704;2023-01-20T07:44:52;19.13;;;11.30;;
56893;SDS011;43392;50.078;13.704;2023-01-20T07:47:19;20.77;;;10.02;;
56893;SDS011;43392;50.078;13.704;2023-01-20T07:49:47;22.30;;;11.13;;
56893;SDS011;43392;50.078;13.704;2023-01-20T07:52:13;24.42;;;13.20;;
56893;SDS011;43392;50.078;13.704;2023-01-20T07:54:40;25.10;;;13.75;;
56893;SDS011;43392;50.078;13.704;2023-01-20T07:57:06;30.60;;;16.95;;
56893;SDS011;43392;50.078;13.704;2023-01-20T07:59:33;32.30;;;18.27;;
56893;SDS011;43392;50.078;13.704;2023-01-20T08:02:00;49.05;;;26.75;;
56893;SDS011;43392;50.078;13.704;2023-01-20T08:04:26;51.45;;;28.20;;
56893;SDS011;43392;50.078;13.704;2023-01-20T08:06:54;48.00;;;26.42;;
56893;SDS011;43392;50.078;13.704;2023-01-20T08:09:21;39.25;;;23.15;;
56893;SDS011;43392;50.078;13.704;2023-01-20T08:11:49;43.05;;;23.85;;
56893;SDS011;43392;50.078;13.704;2023-01-20T08:14:15;50.42;;;25.40;;
56893;SDS011;43392;50.078;13.704;2023-01-20T08:16:42;37.22;;;17.95;;
56893;SDS011;43392;50.078;13.704;2023-01-20T08:19:09;28.02;;;14.75;;
56893;SDS011;43392;50.078;13.704;2023-01-20T08:21:35;35.13;;;16.15;;
56893;SDS011;43392;50.078;13.704;2023-01-20T08:24:04;31.40;;;15.45;;
56893;SDS011;43392;50.078;13.704;2023-01-20T08:26:31;29.30;;;15.55;;
56893;SDS011;43392;50.078;13.704;2023-01-20T08:29:00;34.50;;;15.57;;
56893;SDS011;43392;50.078;13.704;2023-01-20T08:31:28;28.58;;;16.73;;
56893;SDS011;43392;50.078;13.704;2023-01-20T08:33:55;36.65;;;17.38;;
56893;SDS011;43392;50.078;13.704;2023-01-20T08:36:22;29.17;;;17.23;;
56893;SDS011;43392;50.078;13.704;2023-01-20T08:38:50;34.15;;;17.50;;
56893;SDS011;43392;50.078;13.704;2023-01-20T08:41:19;32.28;;;18.50;;
56893;SDS011;43392;50.078;13.704;2023-01-20T08:43:48;33.97;;;18.73;;
56893;SDS011;43392;50.078;13.704;2023-01-20T08:46:16;32.20;;;18.10;;
56893;SDS011;43392;50.078;13.704;2023-01-20T08:48:44;33.90;;;19.38;;
56893;SDS011;43392;50.078;13.704;2023-01-20T08:51:11;34.95;;;19.92;;
56893;SDS011;43392;50.078;13.704;2023-01-20T08:53:40;33.45;;;19.55;;
56893;SDS011;43392;50.078;13.704;2023-01-20T08:56:07;33.85;;;19.90;;
56893;SDS011;43392;50.078;13.704;2023-01-20T08:58:36;42.08;;;21.23;;
56893;SDS011;43392;50.078;13.704;2023-01-20T09:01:06;39.90;;;22.58;;
56893;SDS011;43392;50.078;13.704;2023-01-20T09:06:00;44.88;;;22.02;;
56893;SDS011;43392;50.078;13.704;2023-01-20T09:08:28;46.53;;;25.23;;
56893;SDS011;43392;50.078;13.704;2023-01-20T09:11:00;47.55;;;24.42;;
56893;SDS011;43392;50.078;13.704;2023-01-20T09:13:27;42.47;;;23.63;;
56893;SDS011;43392;50.078;13.704;2023-01-20T09:15:55;38.58;;;21.65;;
56893;SDS011;43392;50.078;13.704;2023-01-20T09:18:21;47.03;;;25.35;;
56893;SDS011;43392;50.078;13.704;2023-01-20T09:20:48;36.58;;;22.17;;
56893;SDS011;43392;50.078;13.704;2023-01-20T09:23:14;46.90;;;26.80;;
56893;SDS011;43392;50.078;13.704;2023-01-20T09:25:41;36.70;;;21.27;;
56893;SDS011;43392;50.078;13.704;2023-01-20T09:28:08;34.95;;;20.83;;
56893;SDS011;43392;50.078;13.704;2023-01-20T09:30:36;34.83;;;20.10;;
56893;SDS011;43392;50.078;13.704;2023-01-20T09:33:04;35.22;;;19.95;;
56893;SDS011;43392;50.078;13.704;2023-01-20T09:35:30;30.98;;;17.88;;
56893;SDS011;43392;50.078;13.704;2023-01-20T09:37:57;37.28;;;20.73;;
56893;SDS011;43392;50.078;13.704;2023-01-20T09:40:42;34.55;;;18.50;;
56893;SDS011;43392;50.078;13.704;2023-01-20T09:43:36;29.08;;;17.73;;
56893;SDS011;43392;50.078;13.704;2023-01-20T09:46:33;32.13;;;17.90;;
56893;SDS011;43392;50.078;13.704;2023-01-20T09:49:33;32.03;;;18.83;;
56893;SDS011;43392;50.078;13.704;2023-01-20T09:52:26;37.50;;;19.52;;
56893;SDS011;43392;50.078;13.704;2023-01-20T09:55:16;37.13;;;20.85;;
56893;SDS011;43392;50.078;13.704;2023-01-20T09:57:47;39.60;;;21.00;;
56893;SDS011;43392;50.078;13.704;2023-01-20T10:00:17;40.25;;;22.90;;
56893;SDS011;43392;50.078;13.704;2023-01-20T10:02:49;41.58;;;23.13;;
56893;SDS011;43392;50.078;13.704;2023-01-20T10:05:24;37.53;;;22.17;;
56893;SDS011;43392;50.078;13.704;2023-01-20T10:07:57;39.10;;;23.58;;
56893;SDS011;43392;50.078;13.704;2023-01-20T10:10:30;42.72;;;24.35;;
56893;SDS011;43392;50.078;13.704;2023-01-20T10:13:01;47.30;;;25.88;;
56893;SDS011;43392;50.078;13.704;2023-01-20T10:15:33;42.75;;;24.77;;
56893;SDS011;43392;50.078;13.704;2023-01-20T10:18:01;42.20;;;26.52;;
56893;SDS011;43392;50.078;13.704;2023-01-20T10:20:35;68.28;;;37.78;;
56893;SDS011;43392;50.078;13.704;2023-01-20T10:23:09;69.57;;;38.08;;
56893;SDS011;43392;50.078;13.704;2023-01-20T10:25:40;77.47;;;42.88;;
56893;SDS011;43392;50.078;13.704;2023-01-20T10:28:14;79.45;;;40.97;;
56893;SDS011;43392;50.078;13.704;2023-01-20T10:30:44;55.25;;;31.73;;
56893;SDS011;43392;50.078;13.704;2023-01-20T10:33:13;61.03;;;35.08;;
56893;SDS011;43392;50.078;13.704;2023-01-20T10:35:47;45.65;;;24.85;;
56893;SDS011;43392;50.078;13.704;2023-01-20T10:38:18;37.67;;;22.52;;
56893;SDS011;43392;50.078;13.704;2023-01-20T10:40:52;45.58;;;23.88;;
56893;SDS011;43392;50.078;13.704;2023-01-20T10:43:25;36.28;;;20.88;;
56893;SDS011;43392;50.078;13.704;2023-01-20T10:45:59;46.20;;;24.63;;
56893;SDS011;43392;50.078;13.704;2023-01-20T10:48:39;43.63;;;23.55;;
56893;SDS011;43392;50.078;13.704;2023-01-20T10:51:22;43.28;;;23.25;;
56893;SDS011;43392;50.078;13.704;2023-01-20T10:53:57;37.80;;;22.17;;
56893;SDS011;43392;50.078;13.704;2023-01-20T10:56:36;47.72;;;25.38;;
56893;SDS011;43392;50.078;13.704;2023-01-20T10:59:10;37.47;;;22.42;;
56893;SDS011;43392;50.078;13.704;2023-01-20T11:01:39;41.58;;;22.50;;
56893;SDS011;43392;50.078;13.704;2023-01-20T11:04:09;42.22;;;22.95;;
56893;SDS011;43392;50.078;13.704;2023-01-20T11:06:44;38.85;;;20.70;;
56893;SDS011;43392;50.078;13.704;2023-01-20T11:09:18;36.30;;;21.17;;
56893;SDS011;43392;50.078;13.704;2023-01-20T11:11:49;37.22;;;20.38;;
56893;SDS011;43392;50.078;13.704;2023-01-20T11:14:16;35.70;;;21.30;;
56893;SDS011;43392;50.078;13.704;2023-01-20T11:16:44;36.03;;;21.00;;
56893;SDS011;43392;50.078;13.704;2023-01-20T11:19:15;40.17;;;21.55;;
56893;SDS011;43392;50.078;13.704;2023-01-20T11:21:42;32.53;;;19.10;;
56893;SDS011;43392;50.078;13.704;2023-01-20T11:27:02;30.63;;;18.55;;
56893;SDS011;43392;50.078;13.704;2023-01-20T11:29:39;37.90;;;20.10;;
56893;SDS011;43392;50.078;13.704;2023-01-20T11:32:22;32.35;;;19.13;;
56893;SDS011;43392;50.078;13.704;2023-01-20T11:34:50;30.00;;;18.92;;
56893;SDS011;43392;50.078;13.704;2023-01-20T11:37:19;36.92;;;21.85;;
56893;SDS011;43392;50.078;13.704;2023-01-20T11:39:56;35.90;;;21.02;;
56893;SDS011;43392;50.078;13.704;2023-01-20T11:42:26;38.22;;;21.92;;
56893;SDS011;43392;50.078;13.704;2023-01-20T11:44:55;35.40;;;21.30;;
56893;SDS011;43392;50.078;13.704;2023-01-20T11:47:24;33.53;;;20.38;;
56893;SDS011;43392;50.078;13.704;2023-01-20T11:50:17;37.85;;;20.95;;
56893;SDS011;43392;50.078;13.704;2023-01-20T11:52:48;36.38;;;20.25;;
56893;SDS011;43392;50.078;13.704;2023-01-20T11:55:16;34.42;;;21.95;;
56893;SDS011;43392;50.078;13.704;2023-01-20T11:57:46;39.20;;;21.77;;
56893;SDS011;43392;50.078;13.704;2023-01-20T12:03:14;35.95;;;20.65;;
56893;SDS011;43392;50.078;13.704;2023-01-20T12:05:53;31.98;;;18.35;;
56893;SDS011;43392;50.078;13.704;2023-01-20T12:08:26;32.95;;;19.58;;
56893;SDS011;43392;50.078;13.704;2023-01-20T12:13:26;43.78;;;22.33;;
56893;SDS011;43392;50.078;13.704;2023-01-20T12:15:55;43.33;;;22.33;;
56893;SDS011;43392;50.078;13.704;2023-01-20T12:18:28;48.47;;;27.05;;
56893;SDS011;43392;50.078;13.704;2023-01-20T12:21:00;51.55;;;29.88;;
56893;SDS011;43392;50.078;13.704;2023-01-20T12:23:32;48.85;;;27.13;;
56893;SDS011;43392;50.078;13.704;2023-01-20T12:26:09;40.25;;;21.63;;
56893;SDS011;43392;50.078;13.704;2023-01-20T12:28:41;36.88;;;22.25;;
56893;SDS011;43392;50.078;13.704;2023-01-20T12:31:13;39.42;;;21.58;;
56893;SDS011;43392;50.078;13.704;2023-01-20T12:33:44;35.17;;;21.50;;
56893;SDS011;43392;50.078;13.704;2023-01-20T12:36:18;36.72;;;22.45;;
56893;SDS011;43392;50.078;13.704;2023-01-20T12:42:04;37.72;;;20.98;;
56893;SDS011;43392;50.078;13.704;2023-01-20T12:44:45;36.40;;;20.15;;
56893;SDS011;43392;50.078;13.704;2023-01-20T12:47:17;36.35;;;21.33;;
56893;SDS011;43392;50.078;13.704;2023-01-20T12:50:00;39.03;;;23.02;;
56893;SDS011;43392;50.078;13.704;2023-01-20T12:52:50;39.03;;;22.35;;
56893;SDS011;43392;50.078;13.704;2023-01-20T12:55:42;36.90;;;22.05;;
56893;SDS011;43392;50.078;13.704;2023-01-20T12:58:23;46.65;;;26.65;;
56893;SDS011;43392;50.078;13.704;2023-01-20T13:01:08;34.60;;;21.15;;
56893;SDS011;43392;50.078;13.704;2023-01-20T13:03:58;36.67;;;21.92;;
56893;SDS011;43392;50.078;13.704;2023-01-20T13:07:06;39.80;;;20.98;;
56893;SDS011;43392;50.078;13.704;2023-01-20T13:09:41;38.28;;;20.90;;
56893;SDS011;43392;50.078;13.704;2023-01-20T13:12:30;36.30;;;21.05;;
56893;SDS011;43392;50.078;13.704;2023-01-20T13:15:08;36.70;;;21.73;;
56893;SDS011;43392;50.078;13.704;2023-01-20T13:17:46;39.85;;;23.08;;
56893;SDS011;43392;50.078;13.704;2023-01-20T13:20:20;39.33;;;22.38;;
56893;SDS011;43392;50.078;13.704;2023-01-20T13:22:48;38.70;;;22.40;;
56893;SDS011;43392;50.078;13.704;2023-01-20T13:25:15;39.50;;;21.23;;
56893;SDS011;43392;50.078;13.704;2023-01-20T13:27:44;44.97;;;22.25;;
56893;SDS011;43392;50.078;13.704;2023-01-20T13:33:05;37.03;;;21.40;;
56893;SDS011;43392;50.078;13.704;2023-01-20T13:35:42;38.05;;;21.15;;
56893;SDS011;43392;50.078;13.704;2023-01-20T13:40:57;36.67;;;21.00;;
56893;SDS011;43392;50.078;13.704;2023-01-20T13:43:34;39.30;;;21.50;;
56893;SDS011;43392;50.078;13.704;2023-01-20T13:46:36;38.03;;;22.15;;
56893;SDS011;43392;50.078;13.704;2023-01-20T13:52:12;39.22;;;21.98;;
56893;SDS011;43392;50.078;13.704;2023-01-20T13:54:45;35.55;;;20.55;;
56893;SDS011;43392;50.078;13.704;2023-01-20T14:00:15;34.13;;;19.30;;
56893;SDS011;43392;50.078;13.704;2023-01-20T14:02:44;34.72;;;19.10;;
56893;SDS011;43392;50.078;13.704;2023-01-20T14:05:22;38.92;;;20.40;;
56893;SDS011;43392;50.078;13.704;2023-01-20T14:07:58;38.67;;;21.02;;
56893;SDS011;43392;50.078;13.704;2023-01-20T14:10:25;35.80;;;19.58;;
56893;SDS011;43392;50.078;13.704;2023-01-20T14:12:51;33.63;;;19.25;;
56893;SDS011;43392;50.078;13.704;2023-01-20T14:15:29;39.35;;;19.25;;
56893;SDS011;43392;50.078;13.704;2023-01-20T14:17:59;35.50;;;19.05;;
56893;SDS011;43392;50.078;13.704;2023-01-20T14:20:27;29.63;;;17.60;;
56893;SDS011;43392;50.078;13.704;2023-01-20T14:22:55;31.85;;;16.95;;
56893;SDS011;43392;50.078;13.704;2023-01-20T14:25:40;33.30;;;17.63;;
56893;SDS011;43392;50.078;13.704;2023-01-20T14:28:16;34.80;;;16.83;;
56893;SDS011;43392;50.078;13.704;2023-01-20T14:30:43;29.58;;;16.88;;
56893;SDS011;43392;50.078;13.704;2023-01-20T14:33:12;26.23;;;15.93;;
56893;SDS011;43392;50.078;13.704;2023-01-20T14:35:40;29.58;;;15.73;;
56893;SDS011;43392;50.078;13.704;2023-01-20T14:38:13;29.60;;;17.70;;
56893;SDS011;43392;50.078;13.704;2023-01-20T14:40:43;35.60;;;17.73;;
56893;SDS011;43392;50.078;13.704;2023-01-20T14:43:15;27.65;;;17.02;;
56893;SDS011;43392;50.078;13.704;2023-01-20T14:45:44;32.00;;;16.98;;
56893;SDS011;43392;50.078;13.704;2023-01-20T14:48:13;32.55;;;17.85;;
56893;SDS011;43392;50.078;13.704;2023-01-20T14:50:40;31.35;;;17.15;;
56893;SDS011;43392;50.078;13.704;2023-01-20T14:53:11;31.88;;;17.48;;
56893;SDS011;43392;50.078;13.704;2023-01-20T14:55:39;31.02;;;17.02;;
56893;SDS011;43392;50.078;13.704;2023-01-20T14:58:11;31.15;;;17.70;;
56893;SDS011;43392;50.078;13.704;2023-01-20T15:00:42;31.00;;;17.17;;
56893;SDS011;43392;50.078;13.704;2023-01-20T15:03:10;32.83;;;17.92;;